createdAt,value
2019-05-15T00:02:27.993Z,4.60
2019-05-15T00:05:13.508Z,4.60
2019-05-15T00:07:59.252Z,4.60
2019-05-15T00:10:44.614Z,4.60
2019-05-15T00:13:29.445Z,4.60
2019-05-15T00:16:14.137Z,4.50
2019-05-15T00:18:59.218Z,4.50
2019-05-15T00:21:44.117Z,4.40
2019-05-15T00:24:29.060Z,4.30
2019-05-15T00:27:13.861Z,4.30
2019-05-15T00:30:19.266Z,4.20
2019-05-15T00:33:04.299Z,4.10
2019-05-15T00:35:48.989Z,4.10
2019-05-15T00:38:33.949Z,4.10
2019-05-15T00:41:18.729Z,4.20
2019-05-15T00:44:03.850Z,4.20
2019-05-15T00:46:48.869Z,4.20
2019-05-15T00:49:34.040Z,4.20
2019-05-15T00:52:19.020Z,4.20
2019-05-15T00:55:05.445Z,4.10
2019-05-15T00:57:50.797Z,4.00
2019-05-15T01:00:39.101Z,4.10
2019-05-15T01:03:23.932Z,4.10
2019-05-15T01:06:08.763Z,4.10
2019-05-15T01:08:53.621Z,4.10
2019-05-15T01:11:38.692Z,4.00
2019-05-15T01:14:23.626Z,4.10
2019-05-15T01:17:09.220Z,4.00
2019-05-15T01:19:54.420Z,3.90
2019-05-15T01:22:39.647Z,3.80
2019-05-15T01:25:24.662Z,3.90
2019-05-15T01:28:09.707Z,3.90
2019-05-15T01:30:54.953Z,3.90
2019-05-15T01:33:39.675Z,3.90
2019-05-15T01:36:24.596Z,3.80
2019-05-15T01:39:09.409Z,3.80
2019-05-15T01:41:54.217Z,3.70
2019-05-15T01:44:39.109Z,3.60
2019-05-15T01:47:24.230Z,3.50
2019-05-15T01:50:09.790Z,3.50
2019-05-15T01:52:54.851Z,3.40
2019-05-15T01:55:39.829Z,3.40
2019-05-15T01:58:25.006Z,3.40
2019-05-15T02:01:09.840Z,3.30
2019-05-15T02:03:54.646Z,3.30
2019-05-15T02:06:39.600Z,3.20
2019-05-15T02:09:24.299Z,3.20
2019-05-15T02:12:09.019Z,3.20
2019-05-15T02:14:53.994Z,3.20
2019-05-15T02:17:39.450Z,3.20
2019-05-15T02:20:24.780Z,3.30
2019-05-15T02:23:11.550Z,3.30
2019-05-15T02:25:58.724Z,3.30
2019-05-15T02:28:43.073Z,3.20
2019-05-15T02:31:30.255Z,3.10
2019-05-15T02:34:14.870Z,3.10
2019-05-15T02:37:00.317Z,3.00
2019-05-15T02:39:45.574Z,2.90
2019-05-15T02:42:30.552Z,2.90
2019-05-15T02:45:15.457Z,2.90
2019-05-15T02:48:00.331Z,2.90
2019-05-15T02:50:45.141Z,2.90
2019-05-15T02:53:30.312Z,2.80
2019-05-15T02:56:15.210Z,2.70
2019-05-15T02:59:00.266Z,2.70
2019-05-15T03:01:45.335Z,2.80
2019-05-15T03:04:30.142Z,2.80
2019-05-15T03:07:15.237Z,2.90
2019-05-15T03:10:00.303Z,2.80
2019-05-15T03:12:45.574Z,2.80
2019-05-15T03:15:30.741Z,2.80
2019-05-15T03:18:19.163Z,2.80
2019-05-15T03:21:03.046Z,2.80
2019-05-15T03:23:50.625Z,2.80
2019-05-15T03:26:35.475Z,2.70
2019-05-15T03:29:21.603Z,2.60
2019-05-15T03:32:24.303Z,2.60
2019-05-15T03:34:56.685Z,2.50
2019-05-15T03:37:40.264Z,2.60
2019-05-15T03:40:25.591Z,2.60
2019-05-15T03:43:10.494Z,2.50
2019-05-15T03:45:55.316Z,2.40
2019-05-15T03:48:40.822Z,2.30
2019-05-15T03:51:28.752Z,2.40
2019-05-15T03:54:12.833Z,2.50
2019-05-15T03:56:58.552Z,2.50
2019-05-15T03:59:43.812Z,2.40
2019-05-15T04:02:28.996Z,2.40
2019-05-15T04:05:14.179Z,2.30
2019-05-15T04:08:00.046Z,2.30
2019-05-15T04:10:45.118Z,2.40
2019-05-15T04:13:30.310Z,2.50
2019-05-15T04:16:15.392Z,2.60
2019-05-15T04:19:00.491Z,2.60
2019-05-15T04:21:45.606Z,2.70
2019-05-15T04:24:31.962Z,2.60
2019-05-15T04:27:19.712Z,2.70
2019-05-15T04:30:24.486Z,2.90
2019-05-15T04:33:09.832Z,2.90
2019-05-15T04:35:55.061Z,3.10
2019-05-15T04:38:40.027Z,3.20
2019-05-15T04:41:24.788Z,3.40
2019-05-15T04:44:10.397Z,3.30
2019-05-15T04:46:59.199Z,3.30
2019-05-15T04:49:42.360Z,3.40
2019-05-15T04:52:30.534Z,3.40
2019-05-15T04:55:14.141Z,3.50
2019-05-15T04:57:59.416Z,3.50
2019-05-15T05:00:49.667Z,3.60
2019-05-15T05:03:34.850Z,3.70
2019-05-15T05:06:20.329Z,3.90
2019-05-15T05:09:05.109Z,4.00
2019-05-15T05:11:49.850Z,4.10
2019-05-15T05:14:54.662Z,4.10
2019-05-15T05:17:39.558Z,4.20
2019-05-15T05:20:24.709Z,4.40
2019-05-15T05:23:09.523Z,4.60
2019-05-15T05:25:54.737Z,4.70
2019-05-15T05:28:39.870Z,4.80
2019-05-15T05:31:24.583Z,5.00
2019-05-15T05:34:09.545Z,5.10
2019-05-15T05:36:54.291Z,5.30
2019-05-15T05:39:39.535Z,5.40
2019-05-15T05:42:24.810Z,5.70
2019-05-15T05:45:10.205Z,5.80
2019-05-15T05:47:55.094Z,6.00
2019-05-15T05:50:44.162Z,6.30
2019-05-15T05:53:28.799Z,6.40
2019-05-15T05:56:14.305Z,6.50
2019-05-15T05:58:58.942Z,6.60
2019-05-15T06:01:44.424Z,6.70
2019-05-15T06:04:29.769Z,6.90
2019-05-15T06:07:14.754Z,7.20
2019-05-15T06:09:59.402Z,7.30
2019-05-15T06:12:44.178Z,7.50
2019-05-15T06:15:29.155Z,7.60
2019-05-15T06:18:14.098Z,7.70
2019-05-15T06:20:59.105Z,7.80
2019-05-15T06:23:46.173Z,8.00
2019-05-15T06:26:30.822Z,8.10
2019-05-15T06:29:17.755Z,8.20
2019-05-15T06:32:02.450Z,8.40
2019-05-15T06:34:48.519Z,8.50
2019-05-15T06:37:33.560Z,8.60
2019-05-15T06:40:18.717Z,8.70
2019-05-15T06:43:03.816Z,8.80
2019-05-15T06:45:48.954Z,8.90
2019-05-15T06:48:33.794Z,8.90
2019-05-15T06:51:19.715Z,8.90
2019-05-15T06:54:04.918Z,9.10
2019-05-15T06:56:49.622Z,9.10
2019-05-15T06:59:34.585Z,9.20
2019-05-15T07:02:19.342Z,9.40
2019-05-15T07:05:07.675Z,9.50
2019-05-15T07:07:52.900Z,9.50
2019-05-15T07:10:37.969Z,9.60
2019-05-15T07:13:22.971Z,9.70
2019-05-15T07:16:08.706Z,9.80
2019-05-15T07:18:53.634Z,9.80
2019-05-15T07:21:38.940Z,9.90
2019-05-15T07:24:24.266Z,10.00
2019-05-15T07:27:09.267Z,10.10
2019-05-15T07:29:53.981Z,10.20
2019-05-15T07:32:39.563Z,10.20
2019-05-15T07:35:24.573Z,10.30
2019-05-15T07:38:09.427Z,10.40
2019-05-15T07:41:00.066Z,10.60
2019-05-15T07:43:41.558Z,10.70
2019-05-15T07:46:28.653Z,10.80
2019-05-15T07:49:14.090Z,10.80
2019-05-15T07:51:59.317Z,10.90
2019-05-15T07:54:44.532Z,10.90
2019-05-15T07:57:29.959Z,11.10
2019-05-15T08:00:18.803Z,11.10
2019-05-15T08:03:03.564Z,11.20
2019-05-15T08:05:58.631Z,11.30
2019-05-15T08:08:35.512Z,11.40
2019-05-15T08:11:24.680Z,11.40
2019-05-15T08:14:08.972Z,11.50
2019-05-15T08:16:54.306Z,11.60
2019-05-15T08:19:39.050Z,11.60
2019-05-15T08:22:24.042Z,11.70
2019-05-15T08:25:12.973Z,11.80
2019-05-15T08:27:58.634Z,11.90
2019-05-15T08:30:43.685Z,11.90
2019-05-15T08:33:28.960Z,12.00
2019-05-15T08:36:13.774Z,12.20
2019-05-15T08:38:59.171Z,12.40
2019-05-15T08:41:44.258Z,12.40
2019-05-15T08:44:29.571Z,12.60
2019-05-15T08:47:14.693Z,12.60
2019-05-15T08:49:59.458Z,12.60
2019-05-15T08:52:44.445Z,12.40
2019-05-15T08:55:29.664Z,12.30
2019-05-15T08:58:14.296Z,12.30
2019-05-15T09:00:59.090Z,12.40
2019-05-15T09:03:44.474Z,12.60
2019-05-15T09:06:29.371Z,12.80
2019-05-15T09:09:14.417Z,12.80
2019-05-15T09:11:59.157Z,12.80
2019-05-15T09:14:44.206Z,12.90
2019-05-15T09:17:29.051Z,13.10
2019-05-15T09:20:15.237Z,13.40
2019-05-15T09:23:00.051Z,13.70
2019-05-15T09:25:49.415Z,14.00
2019-05-15T09:28:33.235Z,14.00
2019-05-15T09:31:19.263Z,13.90
2019-05-15T09:34:04.278Z,14.00
2019-05-15T09:36:49.371Z,13.90
2019-05-15T09:39:34.681Z,13.80
2019-05-15T09:42:19.701Z,13.70
2019-05-15T09:45:08.912Z,13.80
2019-05-15T09:47:54.255Z,13.80
2019-05-15T09:50:39.606Z,13.70
2019-05-15T09:53:24.913Z,13.80
2019-05-15T09:56:09.686Z,14.10
2019-05-15T09:58:54.461Z,14.10
2019-05-15T10:01:39.618Z,14.00
2019-05-15T10:04:25.286Z,14.00
2019-05-15T10:07:10.461Z,14.00
2019-05-15T10:09:55.562Z,14.10
2019-05-15T10:12:40.464Z,14.30
2019-05-15T10:15:26.797Z,14.60
2019-05-15T10:18:11.511Z,14.70
2019-05-15T10:20:58.137Z,14.80
2019-05-15T10:23:43.271Z,15.00
2019-05-15T10:26:28.525Z,15.10
2019-05-15T10:29:13.500Z,15.20
2019-05-15T10:31:58.265Z,15.30
2019-05-15T10:34:43.197Z,15.50
2019-05-15T10:37:28.646Z,15.60
2019-05-15T10:40:14.438Z,15.70
2019-05-15T10:42:59.895Z,15.70
2019-05-15T10:45:44.558Z,15.40
2019-05-15T10:48:29.556Z,15.50
2019-05-15T10:51:14.833Z,15.80
2019-05-15T10:53:59.623Z,16.10
2019-05-15T10:56:45.567Z,16.20
2019-05-15T10:59:30.702Z,16.20
2019-05-15T11:02:15.791Z,16.20
2019-05-15T11:05:00.636Z,16.20
2019-05-15T11:07:48.053Z,16.30
2019-05-15T11:10:32.235Z,16.10
2019-05-15T11:13:18.573Z,16.00
2019-05-15T11:16:04.103Z,16.10
2019-05-15T11:18:49.135Z,15.70
2019-05-15T11:21:34.193Z,15.60
2019-05-15T11:24:19.559Z,15.70
2019-05-15T11:27:04.758Z,16.40
2019-05-15T11:29:49.669Z,17.60
2019-05-15T11:32:34.390Z,18.70
2019-05-15T11:35:19.580Z,19.20
2019-05-15T11:38:04.320Z,19.10
2019-05-15T11:40:49.032Z,19.10
2019-05-15T11:43:33.985Z,20.20
2019-05-15T11:46:18.790Z,21.10
2019-05-15T11:49:03.734Z,21.90
2019-05-15T11:51:49.335Z,22.30
2019-05-15T11:54:34.589Z,23.10
2019-05-15T11:57:19.597Z,23.20
2019-05-15T12:00:15.085Z,23.60
2019-05-15T12:02:53.980Z,23.90
2019-05-15T12:05:38.905Z,23.70
2019-05-15T12:08:24.464Z,24.10
2019-05-15T12:11:15.521Z,24.90
2019-05-15T12:13:56.523Z,25.10
2019-05-15T12:16:41.570Z,24.90
2019-05-15T12:19:29.143Z,24.70
2019-05-15T12:22:13.758Z,25.10
2019-05-15T12:25:00.507Z,25.00
2019-05-15T12:27:45.375Z,25.40
2019-05-15T12:30:30.615Z,25.50
2019-05-15T12:33:18.174Z,25.10
2019-05-15T12:36:03.324Z,24.60
2019-05-15T12:38:50.343Z,24.60
2019-05-15T13:01:14.607Z,26.50
2019-05-15T13:03:50.430Z,26.30
2019-05-15T13:06:47.307Z,26.00
2019-05-15T13:09:22.254Z,26.00
2019-05-15T13:12:08.522Z,26.30
2019-05-15T13:14:53.897Z,26.80
2019-05-15T13:17:39.030Z,26.30
2019-05-15T13:20:24.098Z,25.80
2019-05-15T13:23:09.085Z,25.80
2019-05-15T13:25:53.905Z,25.90
2019-05-15T13:28:39.103Z,26.00
2019-05-15T13:31:24.220Z,26.80
2019-05-15T13:34:09.214Z,26.50
2019-05-15T13:36:54.086Z,26.70
2019-05-15T13:39:59.186Z,26.90
2019-05-15T13:42:44.347Z,27.50
2019-05-15T13:45:29.340Z,27.00
2019-05-15T13:48:16.530Z,26.30
2019-05-15T13:51:01.684Z,27.10
2019-05-15T13:53:48.865Z,27.20
2019-05-15T13:56:33.579Z,27.70
2019-05-15T13:59:18.470Z,28.00
2019-05-15T14:02:03.273Z,27.70
2019-05-15T14:04:49.154Z,27.30
2019-05-15T14:07:45.983Z,26.60
2019-05-15T14:10:21.773Z,26.60
2019-05-15T14:13:06.940Z,26.90
2019-05-15T14:15:51.833Z,27.10
2019-05-15T14:18:38.913Z,28.30
2019-05-15T14:21:23.558Z,27.80
2019-05-15T14:24:09.019Z,27.40
2019-05-15T14:26:54.400Z,27.30
2019-05-15T14:29:39.519Z,27.00
2019-05-15T14:32:35.462Z,26.80
2019-05-15T14:35:11.773Z,26.40
2019-05-15T14:38:03.552Z,26.80
2019-05-15T14:40:43.601Z,27.90
2019-05-15T14:43:41.623Z,27.80
2019-05-15T14:46:26.711Z,25.70
2019-05-15T14:49:11.893Z,24.20
2019-05-15T14:52:05.656Z,24.20
2019-05-15T14:54:43.584Z,24.90
2019-05-15T14:57:28.521Z,25.70
2019-05-15T15:00:14.552Z,26.20
2019-05-15T15:02:59.693Z,26.80
2019-05-15T15:05:45.205Z,27.00
2019-05-15T15:08:32.553Z,26.50
2019-05-15T15:11:18.089Z,26.10
2019-05-15T15:14:04.534Z,25.10
2019-05-15T15:16:49.347Z,25.00
2019-05-15T15:19:34.062Z,26.00
2019-05-15T15:22:18.884Z,26.30
2019-05-15T15:25:05.451Z,26.20
2019-05-15T15:27:50.442Z,26.50
2019-05-15T15:30:37.921Z,26.90
2019-05-15T15:33:22.112Z,27.00
2019-05-15T15:36:08.866Z,27.30
2019-05-15T15:38:53.617Z,27.20
2019-05-15T15:41:39.047Z,27.20
2019-05-15T15:44:24.509Z,27.00
2019-05-15T15:47:09.675Z,27.10
2019-05-15T15:49:54.400Z,26.70
2019-05-15T15:52:40.289Z,26.30
2019-05-15T15:55:25.065Z,26.20
2019-05-15T15:58:09.875Z,25.80
2019-05-15T16:00:56.035Z,26.10
2019-05-15T16:03:40.828Z,25.70
2019-05-15T16:06:25.792Z,25.70
2019-05-15T16:09:11.046Z,26.00
2019-05-15T16:11:57.971Z,24.90
2019-05-15T16:14:42.706Z,24.70
2019-05-15T16:17:28.602Z,24.80
2019-05-15T16:20:15.027Z,25.00
2019-05-15T16:22:59.966Z,25.00
2019-05-15T16:25:45.357Z,25.30
2019-05-15T16:28:30.904Z,25.10
2019-05-15T16:31:15.691Z,25.40
2019-05-15T16:34:01.126Z,25.70
2019-05-15T16:36:48.754Z,25.80
2019-05-15T16:39:33.312Z,25.50
2019-05-15T16:42:18.710Z,25.00
2019-05-15T16:45:09.394Z,24.60
2019-05-15T16:47:54.421Z,24.40
2019-05-15T16:50:39.410Z,24.40
2019-05-15T16:53:24.274Z,23.20
2019-05-15T16:56:09.657Z,22.60
2019-05-15T16:58:54.355Z,21.70
2019-05-15T17:01:39.518Z,20.70
2019-05-15T17:04:24.649Z,19.90
2019-05-15T17:07:09.457Z,19.30
2019-05-15T17:09:55.794Z,19.00
2019-05-15T17:12:40.546Z,18.60
2019-05-15T17:15:27.781Z,18.00
2019-05-15T17:18:12.262Z,17.60
2019-05-15T17:20:58.861Z,17.30
2019-05-15T17:23:43.943Z,17.00
2019-05-15T17:26:29.179Z,16.80
2019-05-15T17:29:14.114Z,16.40
2019-05-15T17:31:59.337Z,16.00
2019-05-15T17:34:44.025Z,15.90
2019-05-15T17:37:28.842Z,15.80
2019-05-15T17:40:14.674Z,15.70
2019-05-15T17:43:02.617Z,15.50
2019-05-15T17:45:48.153Z,15.40
2019-05-15T17:48:33.263Z,15.20
2019-05-15T17:51:18.698Z,15.10
2019-05-15T17:54:03.696Z,15.00
2019-05-15T17:56:49.079Z,14.80
2019-05-15T17:59:34.260Z,14.70
2019-05-15T18:02:19.223Z,14.60
2019-05-15T18:05:07.476Z,14.60
2019-05-15T18:07:53.621Z,14.50
2019-05-15T18:10:38.561Z,14.30
2019-05-15T18:13:23.341Z,14.30
2019-05-15T18:16:13.453Z,14.30
2019-05-15T18:18:54.746Z,14.20
2019-05-15T18:21:39.991Z,14.10
2019-05-15T18:24:25.042Z,14.00
2019-05-15T18:27:09.700Z,14.00
2019-05-15T18:29:54.914Z,13.90
2019-05-15T18:32:39.857Z,13.80
2019-05-15T18:35:25.875Z,13.60
2019-05-15T18:38:10.970Z,13.50
2019-05-15T18:40:58.127Z,13.50
2019-05-15T18:43:43.192Z,13.30
2019-05-15T18:46:28.934Z,13.20
2019-05-15T18:49:14.328Z,13.10
2019-05-15T18:51:59.902Z,13.00
2019-05-15T18:54:44.571Z,12.90
2019-05-15T18:57:29.601Z,12.90
2019-05-15T19:00:18.210Z,12.80
2019-05-15T19:03:16.710Z,12.70
2019-05-15T19:05:50.847Z,12.60
2019-05-15T19:08:35.575Z,12.60
2019-05-15T19:11:20.977Z,12.50
2019-05-15T19:14:08.238Z,12.40
2019-05-15T19:16:53.174Z,12.30
2019-05-15T19:19:38.863Z,12.30
2019-05-15T19:22:23.944Z,12.20
2019-05-15T19:25:09.775Z,12.20
2019-05-15T19:27:54.597Z,12.10
2019-05-15T19:30:39.397Z,12.10
2019-05-15T19:33:34.432Z,12.00
2019-05-15T19:36:11.194Z,11.90
2019-05-15T19:38:56.534Z,11.90
2019-05-15T19:41:41.371Z,11.90
2019-05-15T19:44:28.360Z,11.80
2019-05-15T19:47:13.156Z,11.80
2019-05-15T19:49:57.946Z,11.80
2019-05-15T19:52:43.017Z,11.70
2019-05-15T19:55:27.908Z,11.60
2019-05-15T19:58:13.224Z,11.60
2019-05-15T20:00:58.524Z,11.50
2019-05-15T20:03:50.630Z,11.50
2019-05-15T20:06:30.735Z,11.50
2019-05-15T20:09:18.244Z,11.40
2019-05-15T20:12:03.219Z,11.40
2019-05-15T20:14:48.933Z,11.30
2019-05-15T20:17:34.354Z,11.20
2019-05-15T20:20:19.713Z,11.20
2019-05-15T20:23:08.345Z,11.10
2019-05-15T20:25:52.380Z,11.10
2019-05-15T20:28:39.291Z,11.00
2019-05-15T20:31:24.741Z,10.90
2019-05-15T20:34:10.257Z,10.90
2019-05-15T20:36:58.653Z,10.80
2019-05-15T20:39:42.739Z,10.80
2019-05-15T20:42:27.663Z,10.70
2019-05-15T20:45:12.787Z,10.70
2019-05-15T20:47:58.503Z,10.60
2019-05-15T20:50:43.616Z,10.60
2019-05-15T20:53:35.415Z,10.60
2019-05-15T20:56:20.316Z,10.60
2019-05-15T20:59:05.589Z,10.50
2019-05-15T21:01:51.079Z,10.50
2019-05-15T21:04:38.391Z,10.40
2019-05-15T21:07:34.860Z,10.40
2019-05-15T21:10:10.807Z,10.40
2019-05-15T21:12:59.141Z,10.30
2019-05-15T21:15:42.859Z,10.30
2019-05-15T21:18:28.991Z,10.20
2019-05-15T21:21:14.733Z,10.20
2019-05-15T21:24:00.978Z,10.20
2019-05-15T21:26:45.712Z,10.10
2019-05-15T21:29:30.573Z,10.00
2019-05-15T21:32:15.306Z,10.00
2019-05-15T21:35:00.482Z,10.00
2019-05-15T21:37:45.627Z,9.90
2019-05-15T21:40:30.430Z,9.90
2019-05-15T21:43:15.259Z,9.80
2019-05-15T21:46:00.185Z,9.70
2019-05-15T21:48:44.894Z,9.60
2019-05-15T21:51:29.638Z,9.50
2019-05-15T21:54:14.459Z,9.40
2019-05-15T21:57:18.835Z,9.40
2019-05-15T21:59:46.772Z,9.30
2019-05-15T22:02:31.796Z,9.10
2019-05-15T22:05:18.460Z,9.00
2019-05-15T22:08:04.939Z,9.00
2019-05-15T22:10:50.482Z,8.90
2019-05-15T22:13:35.742Z,8.90
2019-05-15T22:16:20.633Z,8.80
2019-05-15T22:19:05.937Z,8.80
2019-05-15T22:21:51.088Z,8.80
2019-05-15T22:24:37.871Z,8.80
2019-05-15T22:27:23.073Z,8.70
2019-05-15T22:30:09.750Z,8.60
2019-05-15T22:32:55.077Z,8.50
2019-05-15T22:35:40.121Z,8.40
2019-05-15T22:38:25.263Z,8.30
2019-05-15T22:41:10.534Z,8.30
2019-05-15T22:43:55.349Z,8.20
2019-05-15T22:46:40.205Z,8.20
2019-05-15T22:49:24.999Z,8.00
2019-05-15T22:52:09.811Z,8.00
2019-05-15T22:54:55.032Z,7.90
2019-05-15T22:57:39.747Z,7.90
2019-05-15T23:00:24.794Z,7.90
2019-05-15T23:03:09.881Z,7.80
2019-05-15T23:05:54.828Z,7.60
2019-05-15T23:08:39.537Z,7.50
2019-05-15T23:11:24.918Z,7.40
2019-05-15T23:14:09.704Z,7.40
2019-05-15T23:16:54.822Z,7.30
2019-05-15T23:19:39.547Z,7.40
2019-05-15T23:22:24.287Z,7.30
2019-05-15T23:25:09.870Z,7.30
2019-05-15T23:27:54.998Z,7.30
2019-05-15T23:30:39.995Z,7.20
2019-05-15T23:33:24.840Z,7.20
2019-05-15T23:36:09.721Z,7.10
2019-05-15T23:38:54.488Z,7.10
2019-05-15T23:41:39.331Z,7.00
2019-05-15T23:44:24.221Z,6.90
2019-05-15T23:47:10.060Z,6.90
2019-05-15T23:49:55.045Z,6.80
2019-05-15T23:52:39.854Z,6.70
2019-05-15T23:55:24.725Z,6.60
2019-05-15T23:58:09.526Z,6.50
